Time;durP1;ratioP1;P1;durP2;ratioP2;P2;SDS_P1;SDS_P2;PMS_P1;PMS_P2;Temp;Humidity;BMP_temperature;BMP_pressure;BME280_temperature;BME280_humidity;BME280_pressure;Samples;Min_cycle;Max_cycle;Signal;HPM_P1;HPM_P2
2022/02/22 00:01:02;;;;;;;;;;;;;;;;;;5094901;28;19974;-77
2022/02/22 00:03:27;;;;;;;;;;;;;;;;;;5095004;28;19920;-76
2022/02/22 00:05:52;;;;;;;;;;;;;;;;;;5095016;28;19923;-77
2022/02/22 00:08:18;;;;;;;;;;;;;;;;;;5094802;28;20113;-76
2022/02/22 00:10:43;;;;;;;;;;;;;;;;;;5093507;28;19920;-77
2022/02/22 00:13:08;;;;;;;;;;;;;;;;;;5094524;28;19923;-76
2022/02/22 00:15:34;;;;;;;;;;;;;;;;;;5094652;28;19930;-77
2022/02/22 00:18:01;;;;;;;;;;;;;;;;;;5095775;28;20312;-78
2022/02/22 00:20:27;;;;;;;;;;;;;;;;;;5095732;28;19916;-78
2022/02/22 00:22:52;;;;;;;;;;;;;;;;;;5091667;28;19916;-76
2022/02/22 00:25:19;;;;;;;;;;;;;;;;;;5094391;28;19923;-75
2022/02/22 00:27:45;;;;;;;;;;;;;;;;;;5094471;28;20386;-76
2022/02/22 00:30:11;;;;;;;;;;;;;;;;;;5092852;28;19942;-76
2022/02/22 00:32:39;;;;;;;;;;;;;;;;;;5094321;28;19922;-76
2022/02/22 00:35:08;;;;;;;;;;;;;;;;;;5093418;28;19920;-77
2022/02/22 00:37:34;;;;;;;;;;;;;;;;;;5094050;28;19946;-76
2022/02/22 00:39:59;;;;;;;;;;;;;;;;;;5094359;28;19916;-77
2022/02/22 00:42:26;;;;;;;;;;;;;;;;;;5093142;28;19966;-77
2022/02/22 00:44:52;;;;;;;;;;;;;;;;;;5094250;28;19916;-77
2022/02/22 00:47:17;;;;;;;;;;;;;;;;;;5092290;28;19912;-77
2022/02/22 00:49:42;;;;;;;;;;;;;;;;;;5094829;28;19961;-77
2022/02/22 00:52:08;;;;;;;;;;;;;;;;;;5095453;28;20366;-78
2022/02/22 00:54:33;;;;;;;;;;;;;;;;;;5093465;28;19930;-78
2022/02/22 00:56:58;;;;;;;;;;;;;;;;;;5093014;28;19924;-78
2022/02/22 00:59:24;;;;;;;;;;;;;;;;;;5094005;28;19922;-77
2022/02/22 01:01:50;;;;;;;;;;;;;;;;;;5092337;28;20259;-78
2022/02/22 01:04:15;;;;;;;;;;;;;;;;;;5093716;28;19955;-78
2022/02/22 01:06:42;;;;;;;;;;;;;;;;;;5092766;28;19959;-78
2022/02/22 01:09:07;;;;;;;;;;;;;;;;;;5093964;28;20431;-78
2022/02/22 01:11:33;;;;;;;;;;;;;;;;;;5093861;28;20003;-78
2022/02/22 01:13:58;;;;;;;;;;;;;;;;;;5093998;28;19967;-78
2022/02/22 01:16:24;;;;;;;;;;;;;;;;;;5092437;28;20145;-77
2022/02/22 01:18:49;;;;;;;;;;;;;;;;;;5093416;28;20007;-77
2022/02/22 01:21:14;;;;;;;;;;;;;;;;;;5093746;28;20345;-77
2022/02/22 01:23:40;;;;;;;;;;;;;;;;;;5093853;28;19923;-78
2022/02/22 01:26:06;;;;;;;;;;;;;;;;;;5093751;28;20003;-78
2022/02/22 01:28:31;;;;;;;;;;;;;;;;;;5093808;28;19916;-78
2022/02/22 01:30:57;;;;;;;;;;;;;;;;;;5092624;28;19923;-77
2022/02/22 01:33:22;;;;;;;;;;;;;;;;;;5081033;28;19931;-77
2022/02/22 01:35:47;;;;;;;;;;;;;;;;;;5076308;28;19927;-78
2022/02/22 01:38:13;;;;;;;;;;;;;;;;;;5077544;28;19916;-78
2022/02/22 01:40:38;;;;;;;;;;;;;;;;;;5077315;28;19940;-78
2022/02/22 01:43:03;;;;;;;;;;;;;;;;;;5077534;28;19939;-78
2022/02/22 01:45:29;;;;;;;;;;;;;;;;;;5077218;28;19916;-78
2022/02/22 01:47:54;;;;;;;;;;;;;;;;;;5077370;28;20022;-77
2022/02/22 01:50:20;;;;;;;;;;;;;;;;;;5077259;28;19956;-77
2022/02/22 01:52:45;;;;;;;;;;;;;;;;;;5076693;28;19920;-78
2022/02/22 01:55:10;;;;;;;;;;;;;;;;;;5076759;28;19916;-79
2022/02/22 01:57:36;;;;;;;;;;;;;;;;;;5077290;28;19916;-78
2022/02/22 02:00:04;;;;;;;;;;;;;;;;;;5076941;28;19952;-78
2022/02/22 02:02:37;;;;;;;;;;;;;;;;;;5097111;28;19916;-78
2022/02/22 02:05:03;;;;;;;;;;;;;;;;;;5097739;28;20019;-79
2022/02/22 02:07:28;;;;;;;;;;;;;;;;;;5097064;28;19916;-78
2022/02/22 02:09:54;;;;;;;;;;;;;;;;;;5096385;28;19916;-78
2022/02/22 02:12:19;;;;;;;;;;;;;;;;;;5096370;28;19916;-78
2022/02/22 02:14:44;;;;;;;;;;;;;;;;;;5097236;28;20487;-77
2022/02/22 02:17:10;;;;;;;;;;;;;;;;;;5097193;28;20304;-78
2022/02/22 02:19:35;;;;;;;;;;;;;;;;;;5095776;28;19923;-78
2022/02/22 02:22:00;;;;;;;;;;;;;;;;;;5097030;28;20361;-79
2022/02/22 02:24:26;;;;;;;;;;;;;;;;;;5078869;28;19920;-78
2022/02/22 02:26:53;;;;;;;;;;;;;;;;;;5096925;28;19916;-78
2022/02/22 02:29:22;;;;;;;;;;;;;;;;;;5096916;28;19923;-78
2022/02/22 02:31:48;;;;;;;;;;;;;;;;;;5094970;28;19916;-79
2022/02/22 02:34:15;;;;;;;;;;;;;;;;;;5096039;28;19916;-79
2022/02/22 02:36:41;;;;;;;;;;;;;;;;;;5096579;28;19924;-77
2022/02/22 02:39:07;;;;;;;;;;;;;;;;;;5095296;28;19916;-78
2022/02/22 02:41:33;;;;;;;;;;;;;;;;;;5096486;28;19916;-77
2022/02/22 02:44:06;;;;;;;;;;;;;;;;;;5096020;28;19919;-78
2022/02/22 02:46:32;;;;;;;;;;;;;;;;;;5095587;28;19923;-78
2022/02/22 02:48:57;;;;;;;;;;;;;;;;;;5096509;28;19924;-78
2022/02/22 02:51:24;;;;;;;;;;;;;;;;;;5095944;28;20068;-78
2022/02/22 02:53:50;;;;;;;;;;;;;;;;;;5095215;28;20483;-77
2022/02/22 02:56:16;;;;;;;;;;;;;;;;;;5094823;28;20006;-77
2022/02/22 02:58:41;;;;;;;;;;;;;;;;;;5095065;28;19938;-77
2022/02/22 03:01:08;;;;;;;;;;;;;;;;;;5094780;28;19916;-76
2022/02/22 03:03:33;;;;;;;;;;;;;;;;;;5096168;28;20392;-78
2022/02/22 03:05:59;;;;;;;;;;;;;;;;;;5063378;28;19916;-79
2022/02/22 03:08:24;;;;;;;;;;;;;;;;;;5079186;28;20352;-79
2022/02/22 03:10:52;;;;;;;;;;;;;;;;;;5077768;28;20305;-79
2022/02/22 03:13:17;;;;;;;;;;;;;;;;;;5074723;28;19917;-79
2022/02/22 03:15:42;;;;;;;;;;;;;;;;;;5074561;28;19927;-79
2022/02/22 03:18:08;;;;;;;;;;;;;;;;;;5074687;28;19958;-78
2022/02/22 03:20:34;;;;;;;;;;;;;;;;;;5079645;28;20437;-77
2022/02/22 03:23:00;;;;;;;;;;;;;;;;;;5077660;28;20293;-79
2022/02/22 03:25:28;;;;;;;;;;;;;;;;;;5078276;28;19923;-79
2022/02/22 03:27:53;;;;;;;;;;;;;;;;;;5077837;28;20003;-79
2022/02/22 03:30:18;;;;;;;;;;;;;;;;;;5077779;28;19958;-79
2022/02/22 03:32:44;;;;;;;;;;;;;;;;;;5077270;28;20025;-78
2022/02/22 03:35:10;;;;;;;;;;;;;;;;;;5076456;28;19919;-79
2022/02/22 03:37:35;;;;;;;;;;;;;;;;;;5078756;28;19920;-78
2022/02/22 03:40:01;;;;;;;;;;;;;;;;;;5076278;28;19917;-78
2022/02/22 03:42:26;;;;;;;;;;;;;;;;;;5074748;28;19955;-77
2022/02/22 03:44:51;;;;;;;;;;;;;;;;;;5075090;28;20330;-77
2022/02/22 03:47:16;;;;;;;;;;;;;;;;;;5076558;28;19916;-77
2022/02/22 03:49:42;;;;;;;;;;;;;;;;;;5075050;28;20054;-77
2022/02/22 03:52:07;;;;;;;;;;;;;;;;;;5074732;28;19956;-77
2022/02/22 03:54:32;;;;;;;;;;;;;;;;;;5074548;28;19920;-77
2022/02/22 03:56:58;;;;;;;;;;;;;;;;;;5074352;28;19924;-77
2022/02/22 03:59:23;;;;;;;;;;;;;;;;;;5074749;28;19920;-77
2022/02/22 04:01:50;;;;;;;;;;;;;;;;;;5091028;28;19969;-77
2022/02/22 04:04:15;;;;;;;;;;;;;;;;;;5094792;28;19927;-77
2022/02/22 04:06:40;;;;;;;;;;;;;;;;;;5094968;28;19916;-77
2022/02/22 04:09:06;;;;;;;;;;;;;;;;;;5094871;28;19916;-77
2022/02/22 04:11:31;;;;;;;;;;;;;;;;;;5094725;28;19963;-77
2022/02/22 04:13:56;;;;;;;;;;;;;;;;;;5094724;28;19969;-77
2022/02/22 04:16:22;;;;;;;;;;;;;;;;;;5094533;28;19920;-76
2022/02/22 04:18:47;;;;;;;;;;;;;;;;;;5094454;28;19961;-76
2022/02/22 04:21:12;;;;;;;;;;;;;;;;;;5094412;28;19916;-77
2022/02/22 04:23:37;;;;;;;;;;;;;;;;;;5094621;28;19916;-77
2022/02/22 04:26:03;;;;;;;;;;;;;;;;;;5094654;28;20002;-77
2022/02/22 04:28:28;;;;;;;;;;;;;;;;;;5094557;28;20006;-77
2022/02/22 04:30:54;;;;;;;;;;;;;;;;;;5094311;28;20034;-76
2022/02/22 04:33:19;;;;;;;;;;;;;;;;;;5094243;28;20370;-76
2022/02/22 04:35:44;;;;;;;;;;;;;;;;;;5093143;28;19931;-76
2022/02/22 04:38:09;;;;;;;;;;;;;;;;;;5093296;28;19916;-76
2022/02/22 04:40:35;;;;;;;;;;;;;;;;;;5094143;28;19919;-76
2022/02/22 04:43:00;;;;;;;;;;;;;;;;;;5094221;28;20011;-76
2022/02/22 04:45:26;;;;;;;;;;;;;;;;;;5093815;28;19969;-76
2022/02/22 04:47:52;;;;;;;;;;;;;;;;;;5094150;28;19916;-76
2022/02/22 04:50:19;;;;;;;;;;;;;;;;;;5094063;28;19916;-76
2022/02/22 04:52:44;;;;;;;;;;;;;;;;;;5093033;28;20018;-76
2022/02/22 04:55:09;;;;;;;;;;;;;;;;;;5092873;28;19959;-76
2022/02/22 04:57:35;;;;;;;;;;;;;;;;;;5092918;28;20022;-76
2022/02/22 05:00:00;;;;;;;;;;;;;;;;;;5094160;28;19970;-76
2022/02/22 05:02:26;;;;;;;;;;;;;;;;;;5092737;28;19923;-76
2022/02/22 05:04:51;;;;;;;;;;;;;;;;;;5094192;28;19939;-76
2022/02/22 05:07:16;;;;;;;;;;;;;;;;;;5092440;28;19955;-76
2022/02/22 05:09:42;;;;;;;;;;;;;;;;;;5093701;28;19924;-76
2022/02/22 05:12:10;;;;;;;;;;;;;;;;;;5093930;28;19923;-76
2022/02/22 05:14:35;;;;;;;;;;;;;;;;;;5093768;28;19926;-76
2022/02/22 05:17:00;;;;;;;;;;;;;;;;;;5092558;28;20281;-76
2022/02/22 05:19:26;;;;;;;;;;;;;;;;;;5092796;28;20004;-76
2022/02/22 05:21:51;;;;;;;;;;;;;;;;;;5093637;28;19916;-76
2022/02/22 05:24:16;;;;;;;;;;;;;;;;;;5093695;28;19916;-76
2022/02/22 05:26:42;;;;;;;;;;;;;;;;;;5093848;28;20263;-76
2022/02/22 05:29:07;;;;;;;;;;;;;;;;;;5093726;28;19916;-76
2022/02/22 05:31:33;;;;;;;;;;;;;;;;;;5092291;28;19999;-76
2022/02/22 05:33:58;;;;;;;;;;;;;;;;;;5093811;28;19942;-76
2022/02/22 05:36:24;;;;;;;;;;;;;;;;;;5092209;28;19921;-76
2022/02/22 05:38:49;;;;;;;;;;;;;;;;;;5092430;28;19930;-76
2022/02/22 05:41:17;;;;;;;;;;;;;;;;;;5092436;28;19974;-76
2022/02/22 05:43:44;;;;;;;;;;;;;;;;;;5093656;28;19920;-76
2022/02/22 05:46:09;;;;;;;;;;;;;;;;;;5093035;28;20313;-76
2022/02/22 05:48:35;;;;;;;;;;;;;;;;;;5092280;28;19920;-76
2022/02/22 05:51:01;;;;;;;;;;;;;;;;;;5092452;28;20375;-76
2022/02/22 05:53:26;;;;;;;;;;;;;;;;;;5093416;28;19965;-76
2022/02/22 05:55:52;;;;;;;;;;;;;;;;;;5093527;28;19924;-76
2022/02/22 05:58:17;;;;;;;;;;;;;;;;;;5092491;28;20401;-76
2022/02/22 06:00:42;;;;;;;;;;;;;;;;;;5093345;28;19962;-76
2022/02/22 06:03:08;;;;;;;;;;;;;;;;;;5093233;28;19916;-76
2022/02/22 06:05:34;;;;;;;;;;;;;;;;;;5093009;28;19923;-76
2022/02/22 06:08:00;;;;;;;;;;;;;;;;;;5093332;28;19951;-76
2022/02/22 06:10:28;;;;;;;;;;;;;;;;;;5093223;28;19958;-76
2022/02/22 06:12:53;;;;;;;;;;;;;;;;;;5093179;28;19958;-76
2022/02/22 06:15:19;;;;;;;;;;;;;;;;;;5091946;28;19955;-76
2022/02/22 06:17:44;;;;;;;;;;;;;;;;;;5093474;28;19921;-76
2022/02/22 06:20:11;;;;;;;;;;;;;;;;;;5095772;28;19923;-75
2022/02/22 06:22:36;;;;;;;;;;;;;;;;;;5096758;28;19923;-75
2022/02/22 06:25:03;;;;;;;;;;;;;;;;;;5083998;28;19995;-75
2022/02/22 06:27:28;;;;;;;;;;;;;;;;;;5079164;28;19939;-75
2022/02/22 06:29:53;;;;;;;;;;;;;;;;;;5084069;28;20010;-76
2022/02/22 06:32:18;;;;;;;;;;;;;;;;;;5085791;28;20382;-75
2022/02/22 06:34:44;;;;;;;;;;;;;;;;;;5087144;28;19929;-75
2022/02/22 06:37:09;;;;;;;;;;;;;;;;;;5076029;28;19928;-76
2022/02/22 06:39:36;;;;;;;;;;;;;;;;;;5075171;28;19920;-76
2022/02/22 06:42:02;;;;;;;;;;;;;;;;;;5074972;28;19938;-76
2022/02/22 06:44:27;;;;;;;;;;;;;;;;;;5075295;28;20018;-76
2022/02/22 06:46:53;;;;;;;;;;;;;;;;;;5076197;28;19920;-76
2022/02/22 06:49:18;;;;;;;;;;;;;;;;;;5075163;28;19916;-75
2022/02/22 06:51:44;;;;;;;;;;;;;;;;;;5074630;28;19967;-77
2022/02/22 06:54:09;;;;;;;;;;;;;;;;;;5058182;28;19923;-77
2022/02/22 06:56:34;;;;;;;;;;;;;;;;;;5075986;28;19924;-77
2022/02/22 06:59:00;;;;;;;;;;;;;;;;;;5075973;28;19924;-76
2022/02/22 07:01:25;;;;;;;;;;;;;;;;;;5089491;28;19935;-77
2022/02/22 07:03:50;;;;;;;;;;;;;;;;;;5095153;28;19916;-75
2022/02/22 07:06:16;;;;;;;;;;;;;;;;;;5095763;28;19912;-75
2022/02/22 07:08:42;;;;;;;;;;;;;;;;;;5095705;28;20471;-76
2022/02/22 07:11:07;;;;;;;;;;;;;;;;;;5095945;28;20286;-76
2022/02/22 07:13:33;;;;;;;;;;;;;;;;;;5094617;28;19924;-75
2022/02/22 07:15:58;;;;;;;;;;;;;;;;;;5094589;28;19924;-76
2022/02/22 07:18:23;;;;;;;;;;;;;;;;;;5095941;28;20635;-77
2022/02/22 07:20:49;;;;;;;;;;;;;;;;;;5095814;28;19916;-75
2022/02/22 07:23:14;;;;;;;;;;;;;;;;;;5095848;28;19916;-75
2022/02/22 07:25:40;;;;;;;;;;;;;;;;;;5095597;28;19916;-75
2022/02/22 07:28:05;;;;;;;;;;;;;;;;;;5094528;28;19920;-75
2022/02/22 07:30:30;;;;;;;;;;;;;;;;;;5095177;28;20296;-74
2022/02/22 07:33:00;;;;;;;;;;;;;;;;;;5093938;28;19916;-75
2022/02/22 07:35:25;;;;;;;;;;;;;;;;;;5094981;28;19924;-75
2022/02/22 07:37:52;;;;;;;;;;;;;;;;;;5094429;28;19924;-76
2022/02/22 07:40:18;;;;;;;;;;;;;;;;;;5095365;28;19916;-78
2022/02/22 07:42:44;;;;;;;;;;;;;;;;;;5094369;28;19963;-77
2022/02/22 07:45:11;;;;;;;;;;;;;;;;;;5093981;28;19958;-78
2022/02/22 07:47:36;;;;;;;;;;;;;;;;;;5095549;28;19923;-77
2022/02/22 07:50:01;;;;;;;;;;;;;;;;;;5095044;28;19916;-78
2022/02/22 07:52:28;;;;;;;;;;;;;;;;;;5094864;28;19920;-79
2022/02/22 07:54:53;;;;;;;;;;;;;;;;;;5094084;28;19916;-78
2022/02/22 07:57:19;;;;;;;;;;;;;;;;;;5097290;28;19927;-78
2022/02/22 07:59:44;;;;;;;;;;;;;;;;;;5096648;28;20029;-76
2022/02/22 08:02:09;;;;;;;;;;;;;;;;;;5094357;28;20382;-75
2022/02/22 08:04:35;;;;;;;;;;;;;;;;;;5094374;28;19927;-74
2022/02/22 08:07:00;;;;;;;;;;;;;;;;;;5094921;28;19965;-77
2022/02/22 08:09:25;;;;;;;;;;;;;;;;;;5094746;28;19916;-77
2022/02/22 08:11:51;;;;;;;;;;;;;;;;;;5094466;28;20011;-76
2022/02/22 08:14:16;;;;;;;;;;;;;;;;;;5094704;28;20296;-76
2022/02/22 08:16:42;;;;;;;;;;;;;;;;;;5094365;28;19966;-78
2022/02/22 08:19:08;;;;;;;;;;;;;;;;;;5094479;28;20349;-78
2022/02/22 08:21:33;;;;;;;;;;;;;;;;;;5094592;28;19920;-77
2022/02/22 08:23:58;;;;;;;;;;;;;;;;;;5094848;28;19920;-77
2022/02/22 08:26:24;;;;;;;;;;;;;;;;;;5095065;28;19923;-77
2022/02/22 08:28:49;;;;;;;;;;;;;;;;;;5094770;28;20004;-78
2022/02/22 08:31:14;;;;;;;;;;;;;;;;;;5093720;28;19927;-78
2022/02/22 08:33:40;;;;;;;;;;;;;;;;;;5094980;28;19915;-77
2022/02/22 08:36:06;;;;;;;;;;;;;;;;;;5094410;28;19965;-75
2022/02/22 08:38:32;;;;;;;;;;;;;;;;;;5094186;28;20011;-78
2022/02/22 08:40:57;;;;;;;;;;;;;;;;;;5094308;28;19916;-77
2022/02/22 08:43:22;;;;;;;;;;;;;;;;;;5093739;28;20425;-78
2022/02/22 08:45:48;;;;;;;;;;;;;;;;;;5092075;28;20481;-77
2022/02/22 08:48:13;;;;;;;;;;;;;;;;;;5085004;28;20269;-77
2022/02/22 08:50:39;;;;;;;;;;;;;;;;;;5083995;28;19963;-78
2022/02/22 08:53:04;;;;;;;;;;;;;;;;;;5085312;28;19920;-75
2022/02/22 08:55:30;;;;;;;;;;;;;;;;;;5092977;28;19923;-76
2022/02/22 08:57:56;;;;;;;;;;;;;;;;;;5093221;28;19920;-76
2022/02/22 09:00:23;;;;;;;;;;;;;;;;;;5094151;28;20064;-77
2022/02/22 09:02:53;;;;;;;;;;;;;;;;;;5092954;28;20373;-77
2022/02/22 09:05:19;;;;;;;;;;;;;;;;;;5093942;28;19916;-77
2022/02/22 09:07:45;;;;;;;;;;;;;;;;;;5093215;28;19954;-76
2022/02/22 09:10:12;;;;;;;;;;;;;;;;;;5094167;28;19920;-78
2022/02/22 09:12:38;;;;;;;;;;;;;;;;;;5094094;28;20010;-78
2022/02/22 09:15:03;;;;;;;;;;;;;;;;;;5093817;28;20012;-78
2022/02/22 09:17:29;;;;;;;;;;;;;;;;;;5092665;28;19920;-78
2022/02/22 09:19:55;;;;;;;;;;;;;;;;;;5093558;28;19923;-78
2022/02/22 09:22:20;;;;;;;;;;;;;;;;;;5093890;28;19916;-77
2022/02/22 09:24:46;;;;;;;;;;;;;;;;;;5093627;28;19916;-78
2022/02/22 09:27:11;;;;;;;;;;;;;;;;;;5093814;28;20247;-77
2022/02/22 09:29:36;;;;;;;;;;;;;;;;;;5095080;28;19916;-78
2022/02/22 09:32:02;;;;;;;;;;;;;;;;;;5094796;28;20433;-74
2022/02/22 09:34:27;;;;;;;;;;;;;;;;;;5093245;28;19970;-77
2022/02/22 09:36:52;;;;;;;;;;;;;;;;;;5095903;28;19973;-76
2022/02/22 09:39:18;;;;;;;;;;;;;;;;;;5094118;28;19916;-78
2022/02/22 09:41:43;;;;;;;;;;;;;;;;;;5095608;28;19916;-78
2022/02/22 09:44:08;;;;;;;;;;;;;;;;;;5097053;28;19919;-82
2022/02/22 09:46:35;;;;;;;;;;;;;;;;;;5094498;28;19916;-79
2022/02/22 09:49:00;;;;;;;;;;;;;;;;;;5095970;28;20344;-80
2022/02/22 09:51:26;;;;;;;;;;;;;;;;;;5094794;28;19916;-77
2022/02/22 09:53:51;;;;;;;;;;;;;;;;;;5094477;28;19916;-77
2022/02/22 09:56:22;;;;;;;;;;;;;;;;;;5096321;28;19920;-76
2022/02/22 09:58:47;;;;;;;;;;;;;;;;;;5097642;28;19916;-77
2022/02/22 10:01:12;;;;;;;;;;;;;;;;;;5085016;28;19978;-76
2022/02/22 10:03:37;;;;;;;;;;;;;;;;;;5075718;28;19913;-76
2022/02/22 10:06:03;;;;;;;;;;;;;;;;;;5076852;28;19956;-75
2022/02/22 10:08:30;;;;;;;;;;;;;;;;;;5078380;28;19916;-76
2022/02/22 10:10:59;;;;;;;;;;;;;;;;;;5075653;28;19969;-78
2022/02/22 10:13:24;;;;;;;;;;;;;;;;;;5078418;28;19923;-77
2022/02/22 10:15:50;;;;;;;;;;;;;;;;;;5076444;28;19920;-77
2022/02/22 10:18:15;;;;;;;;;;;;;;;;;;5077872;28;20392;-78
2022/02/22 10:20:41;;;;;;;;;;;;;;;;;;5077835;28;19916;-78
2022/02/22 10:23:06;;;;;;;;;;;;;;;;;;5075814;28;20301;-77
2022/02/22 10:25:32;;;;;;;;;;;;;;;;;;5081560;28;19922;-77
2022/02/22 10:27:58;;;;;;;;;;;;;;;;;;5078114;28;19923;-79
2022/02/22 10:30:24;;;;;;;;;;;;;;;;;;5085809;28;19916;-79
2022/02/22 10:32:49;;;;;;;;;;;;;;;;;;5102870;28;20271;-79
2022/02/22 10:35:14;;;;;;;;;;;;;;;;;;5102825;28;20069;-79
2022/02/22 10:37:40;;;;;;;;;;;;;;;;;;5101856;28;19920;-80
2022/02/22 10:40:05;;;;;;;;;;;;;;;;;;5102079;28;19920;-79
2022/02/22 10:42:37;;;;;;;;;;;;;;;;;;5100805;28;19977;-80
2022/02/22 10:45:13;;;;;;;;;;;;;;;;;;5101871;28;19924;-81
2022/02/22 10:47:39;;;;;;;;;;;;;;;;;;5081585;28;20324;-80
2022/02/22 10:50:05;;;;;;;;;;;;;;;;;;5081164;28;20014;-80
2022/02/22 10:52:31;;;;;;;;;;;;;;;;;;5080292;28;19921;-78
2022/02/22 10:55:00;;;;;;;;;;;;;;;;;;5081775;28;20332;-84
2022/02/22 10:57:25;;;;;;;;;;;;;;;;;;5080040;28;19947;-78
2022/02/22 10:59:51;;;;;;;;;;;;;;;;;;5081383;28;19916;-81
2022/02/22 11:02:16;;;;;;;;;;;;;;;;;;5100781;28;19922;-79
2022/02/22 11:04:41;;;;;;;;;;;;;;;;;;5119423;28;20330;-79
2022/02/22 11:07:07;;;;;;;;;;;;;;;;;;5118261;28;19915;-82
2022/02/22 11:09:33;;;;;;;;;;;;;;;;;;5119384;28;19915;-78
2022/02/22 11:12:12;;;;;;;;;;;;;;;;;;5117913;28;20299;-77
2022/02/22 11:14:37;;;;;;;;;;;;;;;;;;5119026;28;19969;-77
2022/02/22 11:17:24;;;;;;;;;;;;;;;;;;5117704;28;20273;-78
2022/02/22 11:19:51;;;;;;;;;;;;;;;;;;5117536;28;20269;-77
2022/02/22 11:22:23;;;;;;;;;;;;;;;;;;5115206;28;19919;-77
2022/02/22 11:24:48;;;;;;;;;;;;;;;;;;5116457;28;19916;-78
2022/02/22 11:27:30;;;;;;;;;;;;;;;;;;5119635;28;19998;-78
2022/02/22 11:30:15;;;;;;;;;;;;;;;;;;5116557;28;19976;-78
2022/02/22 11:32:53;;;;;;;;;;;;;;;;;;5101805;28;19970;-78
2022/02/22 11:35:19;;;;;;;;;;;;;;;;;;5085053;28;19920;-78
2022/02/22 11:37:47;;;;;;;;;;;;;;;;;;5110435;28;19923;-77
2022/02/22 11:40:26;;;;;;;;;;;;;;;;;;5100872;28;20285;-77
2022/02/22 11:42:52;;;;;;;;;;;;;;;;;;5103400;28;19938;-77
2022/02/22 11:45:25;;;;;;;;;;;;;;;;;;5097995;28;19916;-77
2022/02/22 11:48:10;;;;;;;;;;;;;;;;;;5109297;28;19916;-77
2022/02/22 11:50:39;;;;;;;;;;;;;;;;;;5098823;28;19943;-77
2022/02/22 11:53:08;;;;;;;;;;;;;;;;;;5093680;28;20014;-77
2022/02/22 11:55:36;;;;;;;;;;;;;;;;;;5098788;28;19923;-77
2022/02/22 11:58:09;;;;;;;;;;;;;;;;;;5110395;28;19915;-77
2022/02/22 12:00:40;;;;;;;;;;;;;;;;;;5098081;28;19950;-77
2022/02/22 12:03:12;;;;;;;;;;;;;;;;;;5101329;28;19995;-77
2022/02/22 12:05:43;;;;;;;;;;;;;;;;;;5097931;28;19917;-77
2022/02/22 12:08:18;;;;;;;;;;;;;;;;;;5084789;28;19916;-77
2022/02/22 12:10:46;;;;;;;;;;;;;;;;;;5113917;28;19923;-77
2022/02/22 12:13:13;;;;;;;;;;;;;;;;;;5099469;28;19915;-77
2022/02/22 12:15:39;;;;;;;;;;;;;;;;;;5110598;28;19920;-77
2022/02/22 12:18:11;;;;;;;;;;;;;;;;;;5096407;28;19959;-77
2022/02/22 12:20:36;;;;;;;;;;;;;;;;;;5107957;28;19923;-77
2022/02/22 12:23:01;;;;;;;;;;;;;;;;;;5089213;28;19916;-77
2022/02/22 12:25:28;;;;;;;;;;;;;;;;;;5099577;28;20297;-77
2022/02/22 12:28:01;;;;;;;;;;;;;;;;;;5095953;28;20018;-77
2022/02/22 12:30:33;;;;;;;;;;;;;;;;;;5104101;28;19922;-77
2022/02/22 12:32:58;;;;;;;;;;;;;;;;;;5105881;28;19923;-77
2022/02/22 12:35:31;;;;;;;;;;;;;;;;;;5090633;28;20267;-77
2022/02/22 12:37:56;;;;;;;;;;;;;;;;;;5092672;28;19920;-77
2022/02/22 12:40:22;;;;;;;;;;;;;;;;;;5100537;28;19922;-77
2022/02/22 12:42:47;;;;;;;;;;;;;;;;;;5105718;28;19916;-77
2022/02/22 12:45:16;;;;;;;;;;;;;;;;;;5092663;28;20261;-77
2022/02/22 12:47:41;;;;;;;;;;;;;;;;;;5082533;28;20012;-77
2022/02/22 12:50:06;;;;;;;;;;;;;;;;;;5074068;28;19956;-77
2022/02/22 12:52:32;;;;;;;;;;;;;;;;;;5082427;28;19947;-77
2022/02/22 12:55:07;;;;;;;;;;;;;;;;;;5089400;28;19916;-77
2022/02/22 12:57:34;;;;;;;;;;;;;;;;;;5109384;28;20288;-77
2022/02/22 13:00:01;;;;;;;;;;;;;;;;;;5089542;28;20326;-77
2022/02/22 13:02:26;;;;;;;;;;;;;;;;;;5082912;28;19923;-77
2022/02/22 13:04:52;;;;;;;;;;;;;;;;;;5102968;28;19922;-77
2022/02/22 13:07:19;;;;;;;;;;;;;;;;;;5097836;28;19979;-77
2022/02/22 13:09:48;;;;;;;;;;;;;;;;;;5112877;28;19920;-77
2022/02/22 13:12:19;;;;;;;;;;;;;;;;;;5107298;28;19916;-77
2022/02/22 13:14:45;;;;;;;;;;;;;;;;;;5104592;28;19916;-77
2022/02/22 13:17:11;;;;;;;;;;;;;;;;;;5093397;28;19924;-77
2022/02/22 13:19:40;;;;;;;;;;;;;;;;;;5105353;28;19938;-77
2022/02/22 13:22:06;;;;;;;;;;;;;;;;;;5094794;28;19926;-77
2022/02/22 13:24:32;;;;;;;;;;;;;;;;;;5097385;28;19924;-77
2022/02/22 13:26:59;;;;;;;;;;;;;;;;;;5089844;28;20399;-77
2022/02/22 13:29:26;;;;;;;;;;;;;;;;;;5095581;28;20381;-77
2022/02/22 13:32:08;;;;;;;;;;;;;;;;;;5103543;28;19973;-77
2022/02/22 13:34:43;;;;;;;;;;;;;;;;;;5098556;28;19920;-77
2022/02/22 13:37:09;;;;;;;;;;;;;;;;;;5095518;28;20281;-77
2022/02/22 13:39:34;;;;;;;;;;;;;;;;;;5093482;28;19919;-78
2022/02/22 13:42:01;;;;;;;;;;;;;;;;;;5089763;28;19916;-76
2022/02/22 13:44:37;;;;;;;;;;;;;;;;;;5111915;28;20427;-79
2022/02/22 13:47:04;;;;;;;;;;;;;;;;;;5117146;28;19916;-77
2022/02/22 13:49:40;;;;;;;;;;;;;;;;;;5104880;28;19916;-78
2022/02/22 13:52:06;;;;;;;;;;;;;;;;;;5097580;28;20031;-77
2022/02/22 13:54:32;;;;;;;;;;;;;;;;;;5097614;28;20342;-75
2022/02/22 13:57:01;;;;;;;;;;;;;;;;;;5097680;28;19920;-77
2022/02/22 13:59:37;;;;;;;;;;;;;;;;;;5098188;28;20388;-78
2022/02/22 14:02:03;;;;;;;;;;;;;;;;;;5081608;28;19916;-77
2022/02/22 14:04:33;;;;;;;;;;;;;;;;;;5058855;28;19923;-77
2022/02/22 14:06:58;;;;;;;;;;;;;;;;;;5076727;28;19916;-77
2022/02/22 14:09:23;;;;;;;;;;;;;;;;;;5077020;28;19970;-77
2022/02/22 14:11:50;;;;;;;;;;;;;;;;;;5076857;28;20387;-77
2022/02/22 14:14:15;;;;;;;;;;;;;;;;;;5076684;28;19969;-77
2022/02/22 14:16:41;;;;;;;;;;;;;;;;;;5075596;28;19924;-77
2022/02/22 14:19:07;;;;;;;;;;;;;;;;;;5076458;28;19917;-77
2022/02/22 14:21:33;;;;;;;;;;;;;;;;;;5074732;28;19916;-77
2022/02/22 14:23:58;;;;;;;;;;;;;;;;;;5076293;28;19916;-77
2022/02/22 14:26:24;;;;;;;;;;;;;;;;;;5075833;28;19948;-77
2022/02/22 14:28:49;;;;;;;;;;;;;;;;;;5076575;28;19917;-77
2022/02/22 14:31:14;;;;;;;;;;;;;;;;;;5086506;28;19959;-77
2022/02/22 14:33:40;;;;;;;;;;;;;;;;;;5096001;28;19916;-77
2022/02/22 14:36:05;;;;;;;;;;;;;;;;;;5096763;28;19924;-77
2022/02/22 14:38:31;;;;;;;;;;;;;;;;;;5096647;28;20286;-77
2022/02/22 14:40:56;;;;;;;;;;;;;;;;;;5095352;28;19975;-77
2022/02/22 14:43:23;;;;;;;;;;;;;;;;;;5096654;28;19916;-77
2022/02/22 14:45:53;;;;;;;;;;;;;;;;;;5095394;28;19916;-77
2022/02/22 14:48:19;;;;;;;;;;;;;;;;;;5094914;28;20424;-77
2022/02/22 14:50:45;;;;;;;;;;;;;;;;;;5096394;28;20019;-77
2022/02/22 14:53:10;;;;;;;;;;;;;;;;;;5096218;28;19967;-77
2022/02/22 14:55:37;;;;;;;;;;;;;;;;;;5096497;28;19920;-77
2022/02/22 14:58:02;;;;;;;;;;;;;;;;;;5096383;28;19964;-77
2022/02/22 15:00:28;;;;;;;;;;;;;;;;;;5094922;28;20002;-78
2022/02/22 15:02:53;;;;;;;;;;;;;;;;;;5096546;28;19916;-78
2022/02/22 15:05:19;;;;;;;;;;;;;;;;;;5096030;28;19916;-78
2022/02/22 15:07:44;;;;;;;;;;;;;;;;;;5097603;28;19916;-78
2022/02/22 15:10:10;;;;;;;;;;;;;;;;;;5097810;28;20014;-78
2022/02/22 15:12:35;;;;;;;;;;;;;;;;;;5096934;28;19919;-78
2022/02/22 15:15:00;;;;;;;;;;;;;;;;;;5096694;28;19916;-78
2022/02/22 15:17:26;;;;;;;;;;;;;;;;;;5096755;28;19924;-78
2022/02/22 15:19:51;;;;;;;;;;;;;;;;;;5097700;28;19916;-79
2022/02/22 15:22:16;;;;;;;;;;;;;;;;;;5096972;28;19920;-78
2022/02/22 15:24:42;;;;;;;;;;;;;;;;;;5094322;28;19916;-77
2022/02/22 15:27:07;;;;;;;;;;;;;;;;;;5096632;28;20384;-78
2022/02/22 15:29:32;;;;;;;;;;;;;;;;;;5101161;28;19920;-79
2022/02/22 15:31:59;;;;;;;;;;;;;;;;;;5100218;28;19916;-78
2022/02/22 15:34:24;;;;;;;;;;;;;;;;;;5100242;28;19923;-78
2022/02/22 15:36:50;;;;;;;;;;;;;;;;;;5099595;28;19920;-78
2022/02/22 15:39:15;;;;;;;;;;;;;;;;;;5099685;28;19920;-79
2022/02/22 15:41:40;;;;;;;;;;;;;;;;;;5098868;28;20271;-79
2022/02/22 15:44:06;;;;;;;;;;;;;;;;;;5103193;28;20369;-78
2022/02/22 15:46:31;;;;;;;;;;;;;;;;;;5119931;28;19916;-78
2022/02/22 15:48:57;;;;;;;;;;;;;;;;;;5119444;28;19919;-79
2022/02/22 15:51:22;;;;;;;;;;;;;;;;;;5118704;28;19915;-79
2022/02/22 15:53:49;;;;;;;;;;;;;;;;;;5118907;28;19916;-79
2022/02/22 15:56:14;;;;;;;;;;;;;;;;;;5119195;28;19919;-79
2022/02/22 15:58:40;;;;;;;;;;;;;;;;;;5119273;28;20075;-79
2022/02/22 16:01:05;;;;;;;;;;;;;;;;;;5097087;28;19928;-79
2022/02/22 16:03:30;;;;;;;;;;;;;;;;;;5078282;28;19917;-79
2022/02/22 16:05:56;;;;;;;;;;;;;;;;;;5076440;28;20275;-79
2022/02/22 16:08:21;;;;;;;;;;;;;;;;;;5077993;28;19930;-79
2022/02/22 16:10:48;;;;;;;;;;;;;;;;;;5077581;28;19916;-78
2022/02/22 16:13:13;;;;;;;;;;;;;;;;;;5077746;28;19917;-78
2022/02/22 16:15:39;;;;;;;;;;;;;;;;;;5076576;28;19923;-78
2022/02/22 16:18:04;;;;;;;;;;;;;;;;;;5075097;28;20055;-78
2022/02/22 16:20:29;;;;;;;;;;;;;;;;;;5077036;28;19970;-78
2022/02/22 16:22:55;;;;;;;;;;;;;;;;;;5075855;28;19924;-78
2022/02/22 16:25:20;;;;;;;;;;;;;;;;;;5077311;28;20014;-78
2022/02/22 16:27:47;;;;;;;;;;;;;;;;;;5075994;28;19917;-78
2022/02/22 16:30:13;;;;;;;;;;;;;;;;;;5079383;28;19916;-78
2022/02/22 16:32:38;;;;;;;;;;;;;;;;;;5095488;28;19916;-78
2022/02/22 16:35:04;;;;;;;;;;;;;;;;;;5096708;28;19916;-78
2022/02/22 16:37:29;;;;;;;;;;;;;;;;;;5096236;28;20010;-77
2022/02/22 16:39:55;;;;;;;;;;;;;;;;;;5077700;28;20322;-78